sensor_id;sensor_type;location;lat;lon;timestamp;pressure;altitude;pressure_sealevel;temperature
70050;BMP180;57391;51.306;22.680;2024-01-10T00:01:48;101289.80;;;-9.10
70050;BMP180;57391;51.306;22.680;2024-01-10T00:03:50;101293.60;;;-9.10
70050;BMP180;57391;51.306;22.680;2024-01-10T00:05:52;101295.00;;;-9.10
70050;BMP180;57391;51.306;22.680;2024-01-10T00:07:54;101287.40;;;-9.10
70050;BMP180;57391;51.306;22.680;2024-01-10T00:09:56;101283.40;;;-9.00
70050;BMP180;57391;51.306;22.680;2024-01-10T00:11:59;101284.00;;;-9.00
70050;BMP180;57391;51.306;22.680;2024-01-10T00:14:01;101290.80;;;-9.00
70050;BMP180;57391;51.306;22.680;2024-01-10T00:16:05;101292.40;;;-9.04
70050;BMP180;57391;51.306;22.680;2024-01-10T00:18:07;101293.80;;;-9.06
70050;BMP180;57391;51.306;22.680;2024-01-10T00:20:09;101303.60;;;-9.00
70050;BMP180;57391;51.306;22.680;2024-01-10T00:22:10;101298.80;;;-9.00
70050;BMP180;57391;51.306;22.680;2024-01-10T00:24:12;101299.80;;;-9.00
70050;BMP180;57391;51.306;22.680;2024-01-10T00:26:14;101293.20;;;-9.00
70050;BMP180;57391;51.306;22.680;2024-01-10T00:28:16;101294.60;;;-9.00
70050;BMP180;57391;51.306;22.680;2024-01-10T00:30:19;101288.80;;;-9.04
70050;BMP180;57391;51.306;22.680;2024-01-10T00:32:21;101290.80;;;-9.08
70050;BMP180;57391;51.306;22.680;2024-01-10T00:34:23;101281.80;;;-9.10
70050;BMP180;57391;51.306;22.680;2024-01-10T00:36:25;101275.00;;;-9.10
70050;BMP180;57391;51.306;22.680;2024-01-10T00:38:27;101274.20;;;-9.10
70050;BMP180;57391;51.306;22.680;2024-01-10T00:40:29;101271.20;;;-9.10
70050;BMP180;57391;51.306;22.680;2024-01-10T00:42:31;101268.00;;;-9.10
70050;BMP180;57391;51.306;22.680;2024-01-10T00:44:32;101270.40;;;-9.10
70050;BMP180;57391;51.306;22.680;2024-01-10T00:46:34;101272.20;;;-9.00
70050;BMP180;57391;51.306;22.680;2024-01-10T00:48:36;101279.00;;;-9.00
70050;BMP180;57391;51.306;22.680;2024-01-10T00:50:37;101276.60;;;-9.00
70050;BMP180;57391;51.306;22.680;2024-01-10T00:52:39;101278.80;;;-8.94
70050;BMP180;57391;51.306;22.680;2024-01-10T00:54:41;101271.20;;;-8.90
70050;BMP180;57391;51.306;22.680;2024-01-10T00:56:42;101268.60;;;-8.90
70050;BMP180;57391;51.306;22.680;2024-01-10T00:58:44;101265.60;;;-8.90
70050;BMP180;57391;51.306;22.680;2024-01-10T01:00:46;101266.40;;;-8.80
70050;BMP180;57391;51.306;22.680;2024-01-10T01:02:47;101269.20;;;-8.80
70050;BMP180;57391;51.306;22.680;2024-01-10T01:04:49;101271.20;;;-8.70
70050;BMP180;57391;51.306;22.680;2024-01-10T01:06:51;101270.00;;;-8.68
70050;BMP180;57391;51.306;22.680;2024-01-10T01:08:53;101266.00;;;-8.60
70050;BMP180;57391;51.306;22.680;2024-01-10T01:10:54;101263.80;;;-8.50
70050;BMP180;57391;51.306;22.680;2024-01-10T01:12:56;101273.00;;;-8.50
70050;BMP180;57391;51.306;22.680;2024-01-10T01:14:58;101261.40;;;-8.46
70050;BMP180;57391;51.306;22.680;2024-01-10T01:16:59;101260.00;;;-8.40
70050;BMP180;57391;51.306;22.680;2024-01-10T01:19:01;101252.60;;;-8.42
70050;BMP180;57391;51.306;22.680;2024-01-10T01:21:03;101253.00;;;-8.48
70050;BMP180;57391;51.306;22.680;2024-01-10T01:23:05;101251.20;;;-8.50
70050;BMP180;57391;51.306;22.680;2024-01-10T01:25:07;101244.20;;;-8.60
70050;BMP180;57391;51.306;22.680;2024-01-10T01:27:09;101241.60;;;-8.68
70050;BMP180;57391;51.306;22.680;2024-01-10T01:29:11;101247.80;;;-8.72
70050;BMP180;57391;51.306;22.680;2024-01-10T01:31:12;101244.20;;;-8.80
70050;BMP180;57391;51.306;22.680;2024-01-10T01:33:14;101245.40;;;-8.80
70050;BMP180;57391;51.306;22.680;2024-01-10T01:35:16;101248.40;;;-8.90
70050;BMP180;57391;51.306;22.680;2024-01-10T01:37:23;101240.00;;;-8.90
70050;BMP180;57391;51.306;22.680;2024-01-10T01:39:24;101239.20;;;-8.90
70050;BMP180;57391;51.306;22.680;2024-01-10T01:41:26;101239.00;;;-8.98
70050;BMP180;57391;51.306;22.680;2024-01-10T01:43:28;101236.60;;;-9.00
70050;BMP180;57391;51.306;22.680;2024-01-10T01:45:30;101234.40;;;-9.00
70050;BMP180;57391;51.306;22.680;2024-01-10T01:47:32;101228.60;;;-9.06
70050;BMP180;57391;51.306;22.680;2024-01-10T01:49:34;101224.40;;;-9.06
70050;BMP180;57391;51.306;22.680;2024-01-10T01:51:36;101227.00;;;-9.10
70050;BMP180;57391;51.306;22.680;2024-01-10T01:53:40;101226.60;;;-9.10
70050;BMP180;57391;51.306;22.680;2024-01-10T01:55:44;101229.80;;;-9.10
70050;BMP180;57391;51.306;22.680;2024-01-10T01:57:46;101221.60;;;-9.08
70050;BMP180;57391;51.306;22.680;2024-01-10T01:59:48;101218.20;;;-9.04
70050;BMP180;57391;51.306;22.680;2024-01-10T02:01:52;101215.60;;;-9.00
70050;BMP180;57391;51.306;22.680;2024-01-10T02:03:56;101210.60;;;-9.02
70050;BMP180;57391;51.306;22.680;2024-01-10T02:05:59;101210.40;;;-9.00
70050;BMP180;57391;51.306;22.680;2024-01-10T02:08:01;101212.00;;;-9.00
70050;BMP180;57391;51.306;22.680;2024-01-10T02:10:02;101213.00;;;-9.00
70050;BMP180;57391;51.306;22.680;2024-01-10T02:12:05;101210.40;;;-9.00
70050;BMP180;57391;51.306;22.680;2024-01-10T02:14:07;101207.40;;;-9.00
70050;BMP180;57391;51.306;22.680;2024-01-10T02:16:09;101211.60;;;-8.98
70050;BMP180;57391;51.306;22.680;2024-01-10T02:18:11;101205.80;;;-9.00
70050;BMP180;57391;51.306;22.680;2024-01-10T02:20:16;101211.80;;;-9.00
70050;BMP180;57391;51.306;22.680;2024-01-10T02:22:22;101212.40;;;-8.98
70050;BMP180;57391;51.306;22.680;2024-01-10T02:24:24;101216.60;;;-8.96
70050;BMP180;57391;51.306;22.680;2024-01-10T02:26:26;101210.00;;;-8.90
70050;BMP180;57391;51.306;22.680;2024-01-10T02:28:28;101209.60;;;-8.90
70050;BMP180;57391;51.306;22.680;2024-01-10T02:30:30;101197.60;;;-8.90
70050;BMP180;57391;51.306;22.680;2024-01-10T02:32:32;101197.40;;;-8.90
70050;BMP180;57391;51.306;22.680;2024-01-10T02:34:34;101197.40;;;-8.90
70050;BMP180;57391;51.306;22.680;2024-01-10T02:36:35;101186.40;;;-8.98
70050;BMP180;57391;51.306;22.680;2024-01-10T02:38:37;101189.40;;;-9.00
70050;BMP180;57391;51.306;22.680;2024-01-10T02:40:39;101187.80;;;-9.00
70050;BMP180;57391;51.306;22.680;2024-01-10T02:42:41;101186.40;;;-9.00
70050;BMP180;57391;51.306;22.680;2024-01-10T02:44:43;101185.60;;;-9.00
70050;BMP180;57391;51.306;22.680;2024-01-10T02:46:45;101184.40;;;-9.00
70050;BMP180;57391;51.306;22.680;2024-01-10T02:48:47;101183.80;;;-9.00
70050;BMP180;57391;51.306;22.680;2024-01-10T02:50:48;101172.40;;;-9.10
70050;BMP180;57391;51.306;22.680;2024-01-10T02:52:50;101169.60;;;-9.14
70050;BMP180;57391;51.306;22.680;2024-01-10T02:54:52;101171.20;;;-9.20
70050;BMP180;57391;51.306;22.680;2024-01-10T02:56:55;101173.60;;;-9.14
70050;BMP180;57391;51.306;22.680;2024-01-10T02:58:56;101172.60;;;-9.10
70050;BMP180;57391;51.306;22.680;2024-01-10T03:00:58;101166.80;;;-9.10
70050;BMP180;57391;51.306;22.680;2024-01-10T03:03:00;101164.40;;;-9.08
70050;BMP180;57391;51.306;22.680;2024-01-10T03:05:02;101158.20;;;-9.10
70050;BMP180;57391;51.306;22.680;2024-01-10T03:07:04;101159.40;;;-9.10
70050;BMP180;57391;51.306;22.680;2024-01-10T03:09:06;101159.20;;;-9.10
70050;BMP180;57391;51.306;22.680;2024-01-10T03:11:08;101156.60;;;-9.10
70050;BMP180;57391;51.306;22.680;2024-01-10T03:13:09;101155.20;;;-9.10
70050;BMP180;57391;51.306;22.680;2024-01-10T03:15:11;101155.60;;;-9.10
70050;BMP180;57391;51.306;22.680;2024-01-10T03:17:13;101152.00;;;-9.04
70050;BMP180;57391;51.306;22.680;2024-01-10T03:19:15;101157.40;;;-9.00
70050;BMP180;57391;51.306;22.680;2024-01-10T03:21:17;101153.00;;;-9.00
70050;BMP180;57391;51.306;22.680;2024-01-10T03:23:24;101158.40;;;-8.90
70050;BMP180;57391;51.306;22.680;2024-01-10T03:25:26;101153.40;;;-8.80
70050;BMP180;57391;51.306;22.680;2024-01-10T03:27:27;101156.60;;;-8.80
70050;BMP180;57391;51.306;22.680;2024-01-10T03:29:29;101155.60;;;-8.70
70050;BMP180;57391;51.306;22.680;2024-01-10T03:31:31;101150.40;;;-8.70
70050;BMP180;57391;51.306;22.680;2024-01-10T03:33:33;101150.00;;;-8.60
70050;BMP180;57391;51.306;22.680;2024-01-10T03:35:34;101156.00;;;-8.60
70050;BMP180;57391;51.306;22.680;2024-01-10T03:37:36;101155.20;;;-8.52
70050;BMP180;57391;51.306;22.680;2024-01-10T03:39:38;101151.40;;;-8.50
70050;BMP180;57391;51.306;22.680;2024-01-10T03:41:39;101152.00;;;-8.48
70050;BMP180;57391;51.306;22.680;2024-01-10T03:43:41;101151.00;;;-8.40
70050;BMP180;57391;51.306;22.680;2024-01-10T03:45:43;101144.60;;;-8.40
70050;BMP180;57391;51.306;22.680;2024-01-10T03:47:45;101148.80;;;-8.30
70050;BMP180;57391;51.306;22.680;2024-01-10T03:49:51;101149.40;;;-8.28
70050;BMP180;57391;51.306;22.680;2024-01-10T03:51:52;101147.00;;;-8.20
70050;BMP180;57391;51.306;22.680;2024-01-10T03:53:54;101147.00;;;-8.20
70050;BMP180;57391;51.306;22.680;2024-01-10T03:55:56;101145.60;;;-8.16
70050;BMP180;57391;51.306;22.680;2024-01-10T03:57:59;101137.00;;;-8.12
70050;BMP180;57391;51.306;22.680;2024-01-10T04:00:00;101138.40;;;-8.10
70050;BMP180;57391;51.306;22.680;2024-01-10T04:02:03;101144.00;;;-8.06
70050;BMP180;57391;51.306;22.680;2024-01-10T04:04:05;101142.40;;;-8.00
70050;BMP180;57391;51.306;22.680;2024-01-10T04:06:07;101142.20;;;-8.00
70050;BMP180;57391;51.306;22.680;2024-01-10T04:08:08;101138.00;;;-8.00
70050;BMP180;57391;51.306;22.680;2024-01-10T04:10:11;101131.80;;;-8.00
70050;BMP180;57391;51.306;22.680;2024-01-10T04:12:15;101126.60;;;-8.00
70050;BMP180;57391;51.306;22.680;2024-01-10T04:14:17;101123.80;;;-8.00
70050;BMP180;57391;51.306;22.680;2024-01-10T04:16:18;101125.40;;;-7.94
70050;BMP180;57391;51.306;22.680;2024-01-10T04:18:20;101118.60;;;-7.98
70050;BMP180;57391;51.306;22.680;2024-01-10T04:20:22;101120.00;;;-8.00
70050;BMP180;57391;51.306;22.680;2024-01-10T04:22:24;101119.80;;;-8.00
70050;BMP180;57391;51.306;22.680;2024-01-10T04:24:26;101122.00;;;-8.00
70050;BMP180;57391;51.306;22.680;2024-01-10T04:26:28;101119.60;;;-8.00
70050;BMP180;57391;51.306;22.680;2024-01-10T04:28:30;101119.20;;;-8.00
70050;BMP180;57391;51.306;22.680;2024-01-10T04:30:31;101119.20;;;-8.00
70050;BMP180;57391;51.306;22.680;2024-01-10T04:32:33;101114.00;;;-8.00
70050;BMP180;57391;51.306;22.680;2024-01-10T04:34:36;101107.80;;;-8.00
70050;BMP180;57391;51.306;22.680;2024-01-10T04:36:38;101106.40;;;-8.00
70050;BMP180;57391;51.306;22.680;2024-01-10T04:38:40;101104.60;;;-8.00
70050;BMP180;57391;51.306;22.680;2024-01-10T04:40:42;101104.40;;;-8.00
70050;BMP180;57391;51.306;22.680;2024-01-10T04:42:44;101101.20;;;-8.00
70050;BMP180;57391;51.306;22.680;2024-01-10T04:44:46;101111.60;;;-8.00
70050;BMP180;57391;51.306;22.680;2024-01-10T04:46:48;101118.00;;;-8.00
70050;BMP180;57391;51.306;22.680;2024-01-10T04:48:49;101112.80;;;-8.00
70050;BMP180;57391;51.306;22.680;2024-01-10T04:50:51;101117.60;;;-8.00
70050;BMP180;57391;51.306;22.680;2024-01-10T04:52:53;101116.80;;;-8.00
70050;BMP180;57391;51.306;22.680;2024-01-10T04:54:55;101113.40;;;-8.00
70050;BMP180;57391;51.306;22.680;2024-01-10T04:56:56;101111.60;;;-8.00
70050;BMP180;57391;51.306;22.680;2024-01-10T04:58:58;101118.80;;;-8.00
70050;BMP180;57391;51.306;22.680;2024-01-10T05:01:00;101121.40;;;-8.00
70050;BMP180;57391;51.306;22.680;2024-01-10T05:03:02;101117.00;;;-8.00
70050;BMP180;57391;51.306;22.680;2024-01-10T05:05:04;101111.80;;;-7.98
70050;BMP180;57391;51.306;22.680;2024-01-10T05:07:06;101112.40;;;-7.98
70050;BMP180;57391;51.306;22.680;2024-01-10T05:09:07;101116.00;;;-8.00
70050;BMP180;57391;51.306;22.680;2024-01-10T05:11:11;101113.80;;;-8.00
70050;BMP180;57391;51.306;22.680;2024-01-10T05:13:13;101118.20;;;-8.00
70050;BMP180;57391;51.306;22.680;2024-01-10T05:15:15;101115.60;;;-8.00
70050;BMP180;57391;51.306;22.680;2024-01-10T05:17:17;101117.60;;;-8.00
70050;BMP180;57391;51.306;22.680;2024-01-10T05:19:19;101114.60;;;-8.00
70050;BMP180;57391;51.306;22.680;2024-01-10T05:21:21;101107.20;;;-8.00
70050;BMP180;57391;51.306;22.680;2024-01-10T05:23:23;101102.40;;;-8.00
70050;BMP180;57391;51.306;22.680;2024-01-10T05:25:25;101102.00;;;-8.00
70050;BMP180;57391;51.306;22.680;2024-01-10T05:27:29;101098.20;;;-8.00
70050;BMP180;57391;51.306;22.680;2024-01-10T05:29:30;101097.80;;;-8.04
70050;BMP180;57391;51.306;22.680;2024-01-10T05:31:32;101091.00;;;-8.10
70050;BMP180;57391;51.306;22.680;2024-01-10T05:33:34;101088.60;;;-8.10
70050;BMP180;57391;51.306;22.680;2024-01-10T05:35:38;101088.60;;;-8.10
70050;BMP180;57391;51.306;22.680;2024-01-10T05:37:40;101091.00;;;-8.10
70050;BMP180;57391;51.306;22.680;2024-01-10T05:39:41;101083.00;;;-8.20
70050;BMP180;57391;51.306;22.680;2024-01-10T05:41:43;101091.40;;;-8.20
70050;BMP180;57391;51.306;22.680;2024-01-10T05:43:47;101094.20;;;-8.20
70050;BMP180;57391;51.306;22.680;2024-01-10T05:45:49;101091.60;;;-8.20
70050;BMP180;57391;51.306;22.680;2024-01-10T05:47:52;101091.00;;;-8.22
70050;BMP180;57391;51.306;22.680;2024-01-10T05:49:54;101083.60;;;-8.26
70050;BMP180;57391;51.306;22.680;2024-01-10T05:51:56;101068.40;;;-8.30
70050;BMP180;57391;51.306;22.680;2024-01-10T05:53:58;101072.80;;;-8.30
70050;BMP180;57391;51.306;22.680;2024-01-10T05:55:59;101074.60;;;-8.30
70050;BMP180;57391;51.306;22.680;2024-01-10T05:58:02;101075.40;;;-8.30
70050;BMP180;57391;51.306;22.680;2024-01-10T06:00:05;101070.60;;;-8.30
70050;BMP180;57391;51.306;22.680;2024-01-10T06:02:11;101070.60;;;-8.30
70050;BMP180;57391;51.306;22.680;2024-01-10T06:04:12;101074.80;;;-8.30
70050;BMP180;57391;51.306;22.680;2024-01-10T06:06:14;101075.60;;;-8.30
70050;BMP180;57391;51.306;22.680;2024-01-10T06:08:16;101082.80;;;-8.30
70050;BMP180;57391;51.306;22.680;2024-01-10T06:10:18;101083.20;;;-8.26
70050;BMP180;57391;51.306;22.680;2024-01-10T06:12:19;101083.80;;;-8.20
70050;BMP180;57391;51.306;22.680;2024-01-10T06:14:21;101084.20;;;-8.20
70050;BMP180;57391;51.306;22.680;2024-01-10T06:16:23;101080.40;;;-8.18
70050;BMP180;57391;51.306;22.680;2024-01-10T06:18:24;101089.60;;;-8.16
70050;BMP180;57391;51.306;22.680;2024-01-10T06:20:27;101084.40;;;-8.10
70050;BMP180;57391;51.306;22.680;2024-01-10T06:22:29;101082.00;;;-8.10
70050;BMP180;57391;51.306;22.680;2024-01-10T06:24:31;101087.40;;;-8.10
70050;BMP180;57391;51.306;22.680;2024-01-10T06:26:33;101084.20;;;-8.10
70050;BMP180;57391;51.306;22.680;2024-01-10T06:28:34;101089.20;;;-8.10
70050;BMP180;57391;51.306;22.680;2024-01-10T06:30:36;101087.00;;;-8.10
70050;BMP180;57391;51.306;22.680;2024-01-10T06:32:40;101088.20;;;-8.10
70050;BMP180;57391;51.306;22.680;2024-01-10T06:34:42;101086.60;;;-8.10
70050;BMP180;57391;51.306;22.680;2024-01-10T06:36:44;101087.40;;;-8.10
70050;BMP180;57391;51.306;22.680;2024-01-10T06:38:46;101082.60;;;-8.14
70050;BMP180;57391;51.306;22.680;2024-01-10T06:40:48;101082.40;;;-8.18
70050;BMP180;57391;51.306;22.680;2024-01-10T06:42:50;101088.20;;;-8.14
70050;BMP180;57391;51.306;22.680;2024-01-10T06:44:52;101086.40;;;-8.10
70050;BMP180;57391;51.306;22.680;2024-01-10T06:46:54;101088.20;;;-8.10
70050;BMP180;57391;51.306;22.680;2024-01-10T06:48:59;101084.80;;;-8.10
70050;BMP180;57391;51.306;22.680;2024-01-10T06:51:00;101089.80;;;-8.10
70050;BMP180;57391;51.306;22.680;2024-01-10T06:53:02;101090.00;;;-8.10
70050;BMP180;57391;51.306;22.680;2024-01-10T06:55:05;101090.40;;;-8.00
70050;BMP180;57391;51.306;22.680;2024-01-10T06:57:07;101099.60;;;-8.00
70050;BMP180;57391;51.306;22.680;2024-01-10T06:59:09;101101.20;;;-7.98
70050;BMP180;57391;51.306;22.680;2024-01-10T07:01:12;101095.80;;;-7.90
70050;BMP180;57391;51.306;22.680;2024-01-10T07:03:14;101102.40;;;-7.90
70050;BMP180;57391;51.306;22.680;2024-01-10T07:05:16;101100.00;;;-7.90
70050;BMP180;57391;51.306;22.680;2024-01-10T07:07:18;101107.60;;;-7.80
70050;BMP180;57391;51.306;22.680;2024-01-10T07:09:20;101107.00;;;-7.74
70050;BMP180;57391;51.306;22.680;2024-01-10T07:11:21;101109.40;;;-7.60
70050;BMP180;57391;51.306;22.680;2024-01-10T07:13:24;101103.00;;;-7.42
70050;BMP180;57391;51.306;22.680;2024-01-10T07:15:25;101104.00;;;-7.18
70050;BMP180;57391;51.306;22.680;2024-01-10T07:17:27;101104.20;;;-6.96
70050;BMP180;57391;51.306;22.680;2024-01-10T07:19:29;101105.80;;;-6.70
70050;BMP180;57391;51.306;22.680;2024-01-10T07:21:31;101099.60;;;-6.50
70050;BMP180;57391;51.306;22.680;2024-01-10T07:23:32;101096.60;;;-6.30
70050;BMP180;57391;51.306;22.680;2024-01-10T07:25:35;101097.00;;;-6.10
70050;BMP180;57391;51.306;22.680;2024-01-10T07:27:38;101102.80;;;-5.86
70050;BMP180;57391;51.306;22.680;2024-01-10T07:29:41;101103.60;;;-5.60
70050;BMP180;57391;51.306;22.680;2024-01-10T07:31:43;101110.20;;;-5.40
70050;BMP180;57391;51.306;22.680;2024-01-10T07:33:44;101109.80;;;-5.20
70050;BMP180;57391;51.306;22.680;2024-01-10T07:35:46;101104.40;;;-5.00
70050;BMP180;57391;51.306;22.680;2024-01-10T07:37:48;101104.00;;;-4.88
70050;BMP180;57391;51.306;22.680;2024-01-10T07:39:49;101108.80;;;-4.62
70050;BMP180;57391;51.306;22.680;2024-01-10T07:41:52;101112.20;;;-4.40
70050;BMP180;57391;51.306;22.680;2024-01-10T07:43:53;101122.00;;;-4.20
70050;BMP180;57391;51.306;22.680;2024-01-10T07:45:55;101122.00;;;-4.00
70050;BMP180;57391;51.306;22.680;2024-01-10T07:47:57;101123.80;;;-3.90
70050;BMP180;57391;51.306;22.680;2024-01-10T07:49:59;101125.20;;;-3.72
70050;BMP180;57391;51.306;22.680;2024-01-10T07:52:01;101122.80;;;-3.58
70050;BMP180;57391;51.306;22.680;2024-01-10T07:54:03;101121.40;;;-3.42
70050;BMP180;57391;51.306;22.680;2024-01-10T07:56:05;101123.40;;;-3.26
70050;BMP180;57391;51.306;22.680;2024-01-10T07:58:07;101118.00;;;-3.10
70050;BMP180;57391;51.306;22.680;2024-01-10T08:00:09;101123.00;;;-2.90
70050;BMP180;57391;51.306;22.680;2024-01-10T08:02:12;101125.60;;;-2.74
70050;BMP180;57391;51.306;22.680;2024-01-10T08:04:14;101127.00;;;-2.60
70050;BMP180;57391;51.306;22.680;2024-01-10T08:06:15;101131.80;;;-2.50
70050;BMP180;57391;51.306;22.680;2024-01-10T08:08:17;101134.60;;;-2.46
70050;BMP180;57391;51.306;22.680;2024-01-10T08:10:19;101140.20;;;-2.40
70050;BMP180;57391;51.306;22.680;2024-01-10T08:12:21;101141.80;;;-2.30
70050;BMP180;57391;51.306;22.680;2024-01-10T08:14:23;101138.40;;;-2.20
70050;BMP180;57391;51.306;22.680;2024-01-10T08:16:25;101140.40;;;-2.20
70050;BMP180;57391;51.306;22.680;2024-01-10T08:18:27;101135.20;;;-2.10
70050;BMP180;57391;51.306;22.680;2024-01-10T08:20:29;101143.80;;;-2.04
70050;BMP180;57391;51.306;22.680;2024-01-10T08:22:31;101143.40;;;-2.00
70050;BMP180;57391;51.306;22.680;2024-01-10T08:24:33;101144.80;;;-1.90
70050;BMP180;57391;51.306;22.680;2024-01-10T08:26:35;101142.40;;;-1.80
70050;BMP180;57391;51.306;22.680;2024-01-10T08:28:37;101137.60;;;-1.70
70050;BMP180;57391;51.306;22.680;2024-01-10T08:30:39;101136.00;;;-1.70
70050;BMP180;57391;51.306;22.680;2024-01-10T08:32:41;101139.20;;;-1.72
70050;BMP180;57391;51.306;22.680;2024-01-10T08:34:43;101144.40;;;-1.80
70050;BMP180;57391;51.306;22.680;2024-01-10T08:36:46;101133.60;;;-1.80
70050;BMP180;57391;51.306;22.680;2024-01-10T08:38:52;101141.20;;;-1.90
70050;BMP180;57391;51.306;22.680;2024-01-10T08:40:53;101143.40;;;-1.90
70050;BMP180;57391;51.306;22.680;2024-01-10T08:42:55;101144.20;;;-1.90
70050;BMP180;57391;51.306;22.680;2024-01-10T08:44:57;101144.20;;;-1.90
70050;BMP180;57391;51.306;22.680;2024-01-10T08:46:58;101149.00;;;-1.80
70050;BMP180;57391;51.306;22.680;2024-01-10T08:49:00;101148.20;;;-1.80
70050;BMP180;57391;51.306;22.680;2024-01-10T08:51:02;101153.60;;;-1.70
70050;BMP180;57391;51.306;22.680;2024-01-10T08:53:05;101156.80;;;-1.64
70050;BMP180;57391;51.306;22.680;2024-01-10T08:55:07;101158.00;;;-1.60
70050;BMP180;57391;51.306;22.680;2024-01-10T08:57:09;101157.80;;;-1.60
70050;BMP180;57391;51.306;22.680;2024-01-10T08:59:12;101154.80;;;-1.68
70050;BMP180;57391;51.306;22.680;2024-01-10T09:01:14;101159.00;;;-1.70
70050;BMP180;57391;51.306;22.680;2024-01-10T09:03:15;101149.60;;;-1.80
70050;BMP180;57391;51.306;22.680;2024-01-10T09:05:17;101152.20;;;-1.90
70050;BMP180;57391;51.306;22.680;2024-01-10T09:07:20;101154.60;;;-2.00
70050;BMP180;57391;51.306;22.680;2024-01-10T09:09:22;101155.60;;;-2.00
70050;BMP180;57391;51.306;22.680;2024-01-10T09:11:24;101156.20;;;-2.00
70050;BMP180;57391;51.306;22.680;2024-01-10T09:13:26;101155.40;;;-2.08
70050;BMP180;57391;51.306;22.680;2024-01-10T09:15:28;101152.80;;;-2.10
70050;BMP180;57391;51.306;22.680;2024-01-10T09:17:30;101152.00;;;-2.10
70050;BMP180;57391;51.306;22.680;2024-01-10T09:19:32;101156.40;;;-2.10
70050;BMP180;57391;51.306;22.680;2024-01-10T09:21:34;101157.00;;;-2.00
70050;BMP180;57391;51.306;22.680;2024-01-10T09:23:36;101159.20;;;-1.90
70050;BMP180;57391;51.306;22.680;2024-01-10T09:25:38;101154.40;;;-1.92
70050;BMP180;57391;51.306;22.680;2024-01-10T09:27:40;101155.00;;;-1.90
70050;BMP180;57391;51.306;22.680;2024-01-10T09:29:45;101149.00;;;-1.80
70050;BMP180;57391;51.306;22.680;2024-01-10T09:31:46;101146.20;;;-1.70
70050;BMP180;57391;51.306;22.680;2024-01-10T09:33:48;101144.40;;;-1.66
70050;BMP180;57391;51.306;22.680;2024-01-10T09:35:50;101141.00;;;-1.60
70050;BMP180;57391;51.306;22.680;2024-01-10T09:37:52;101133.00;;;-1.60
70050;BMP180;57391;51.306;22.680;2024-01-10T09:39:55;101128.20;;;-1.60
70050;BMP180;57391;51.306;22.680;2024-01-10T09:41:58;101127.20;;;-1.60
70050;BMP180;57391;51.306;22.680;2024-01-10T09:44:00;101127.60;;;-1.62
70050;BMP180;57391;51.306;22.680;2024-01-10T09:46:02;101128.80;;;-1.60
70050;BMP180;57391;51.306;22.680;2024-01-10T09:48:06;101132.00;;;-1.60
70050;BMP180;57391;51.306;22.680;2024-01-10T09:50:08;101132.80;;;-1.60
70050;BMP180;57391;51.306;22.680;2024-01-10T09:52:23;101134.20;;;-1.50
70050;BMP180;57391;51.306;22.680;2024-01-10T09:54:26;101131.00;;;-1.46
70050;BMP180;57391;51.306;22.680;2024-01-10T09:56:32;101129.20;;;-1.40
70050;BMP180;57391;51.306;22.680;2024-01-10T09:58:34;101120.60;;;-1.40
70050;BMP180;57391;51.306;22.680;2024-01-10T10:00:41;101119.20;;;-1.38
70050;BMP180;57391;51.306;22.680;2024-01-10T10:02:43;101121.60;;;-1.40
70050;BMP180;57391;51.306;22.680;2024-01-10T10:07:09;101119.20;;;-1.40
70050;BMP180;57391;51.306;22.680;2024-01-10T10:09:12;101114.40;;;-1.32
70050;BMP180;57391;51.306;22.680;2024-01-10T10:11:14;101110.40;;;-1.30
70050;BMP180;57391;51.306;22.680;2024-01-10T10:13:28;101108.40;;;-1.20
70050;BMP180;57391;51.306;22.680;2024-01-10T10:15:30;101114.00;;;-1.10
70050;BMP180;57391;51.306;22.680;2024-01-10T10:17:32;101114.80;;;-1.08
70050;BMP180;57391;51.306;22.680;2024-01-10T10:19:34;101112.80;;;-1.00
70050;BMP180;57391;51.306;22.680;2024-01-10T10:21:35;101116.20;;;-0.96
70050;BMP180;57391;51.306;22.680;2024-01-10T10:23:43;101113.00;;;-0.98
70050;BMP180;57391;51.306;22.680;2024-01-10T10:25:46;101103.80;;;-1.00
70050;BMP180;57391;51.306;22.680;2024-01-10T10:27:51;101102.80;;;-1.10
70050;BMP180;57391;51.306;22.680;2024-01-10T10:29:54;101099.00;;;-1.20
70050;BMP180;57391;51.306;22.680;2024-01-10T10:31:55;101106.40;;;-1.20
70050;BMP180;57391;51.306;22.680;2024-01-10T10:34:00;101098.80;;;-1.20
70050;BMP180;57391;51.306;22.680;2024-01-10T10:36:04;101101.80;;;-1.20
70050;BMP180;57391;51.306;22.680;2024-01-10T10:38:08;101107.00;;;-1.18
70050;BMP180;57391;51.306;22.680;2024-01-10T10:40:12;101112.80;;;-1.20
70050;BMP180;57391;51.306;22.680;2024-01-10T10:42:15;101111.20;;;-1.20
70050;BMP180;57391;51.306;22.680;2024-01-10T10:44:19;101100.60;;;-1.20
70050;BMP180;57391;51.306;22.680;2024-01-10T10:46:27;101091.20;;;-1.20
70050;BMP180;57391;51.306;22.680;2024-01-10T10:48:33;101099.60;;;-1.20
70050;BMP180;57391;51.306;22.680;2024-01-10T10:50:36;101094.60;;;-1.20
70050;BMP180;57391;51.306;22.680;2024-01-10T10:52:41;101089.00;;;-1.30
70050;BMP180;57391;51.306;22.680;2024-01-10T10:54:47;101084.80;;;-1.30
70050;BMP180;57391;51.306;22.680;2024-01-10T10:56:51;101081.60;;;-1.30
70050;BMP180;57391;51.306;22.680;2024-01-10T10:58:54;101073.00;;;-1.30
70050;BMP180;57391;51.306;22.680;2024-01-10T11:00:57;101077.00;;;-1.24
70050;BMP180;57391;51.306;22.680;2024-01-10T11:03:03;101074.00;;;-1.20
70050;BMP180;57391;51.306;22.680;2024-01-10T11:05:07;101074.80;;;-1.20
70050;BMP180;57391;51.306;22.680;2024-01-10T11:07:10;101069.80;;;-1.30
70050;BMP180;57391;51.306;22.680;2024-01-10T11:09:15;101072.00;;;-1.30
70050;BMP180;57391;51.306;22.680;2024-01-10T11:11:50;101065.40;;;-1.30
70050;BMP180;57391;51.306;22.680;2024-01-10T11:14:14;101059.40;;;-1.38
70050;BMP180;57391;51.306;22.680;2024-01-10T11:16:56;101054.60;;;-1.40
70050;BMP180;57391;51.306;22.680;2024-01-10T11:21:56;101048.80;;;-1.30
70050;BMP180;57391;51.306;22.680;2024-01-10T11:24:02;101038.00;;;-1.28
70050;BMP180;57391;51.306;22.680;2024-01-10T11:26:05;101041.00;;;-1.20
70050;BMP180;57391;51.306;22.680;2024-01-10T11:28:08;101041.80;;;-1.20
70050;BMP180;57391;51.306;22.680;2024-01-10T11:30:11;101031.40;;;-1.20
70050;BMP180;57391;51.306;22.680;2024-01-10T11:32:16;101029.20;;;-1.10